sensor_id;sensor_type;location;lat;lon;timestamp;pressure;altitude;pressure_sealevel;temperature;humidity
61573;BME280;47465;43.094;12.434;2023-10-19T00:02:23;98100.25;;;15.90;100.00
61573;BME280;47465;43.094;12.434;2023-10-19T00:04:49;98076.22;;;15.88;100.00
61573;BME280;47465;43.094;12.434;2023-10-19T00:07:15;98090.66;;;15.86;100.00
61573;BME280;47465;43.094;12.434;2023-10-19T00:09:42;98081.16;;;15.80;100.00
61573;BME280;47465;43.094;12.434;2023-10-19T00:12:13;98055.16;;;15.66;100.00
61573;BME280;47465;43.094;12.434;2023-10-19T00:14:41;98076.47;;;15.68;100.00
61573;BME280;47465;43.094;12.434;2023-10-19T00:17:07;98116.06;;;15.94;100.00
61573;BME280;47465;43.094;12.434;2023-10-19T00:19:36;98086.53;;;15.64;100.00
61573;BME280;47465;43.094;12.434;2023-10-19T00:22:07;98105.88;;;15.69;100.00
61573;BME280;47465;43.094;12.434;2023-10-19T00:24:34;98105.63;;;15.74;100.00
61573;BME280;47465;43.094;12.434;2023-10-19T00:27:01;98142.34;;;16.04;100.00
61573;BME280;47465;43.094;12.434;2023-10-19T00:29:35;98115.72;;;15.85;100.00
61573;BME280;47465;43.094;12.434;2023-10-19T00:32:06;98095.25;;;15.84;100.00
61573;BME280;47465;43.094;12.434;2023-10-19T00:34:38;98101.03;;;15.92;100.00
61573;BME280;47465;43.094;12.434;2023-10-19T00:37:04;98062.13;;;15.85;100.00
61573;BME280;47465;43.094;12.434;2023-10-19T00:39:34;98093.78;;;16.08;100.00
61573;BME280;47465;43.094;12.434;2023-10-19T00:42:35;98075.09;;;15.76;100.00
61573;BME280;47465;43.094;12.434;2023-10-19T00:45:05;98025.47;;;15.69;100.00
61573;BME280;47465;43.094;12.434;2023-10-19T00:47:32;98079.03;;;16.01;100.00
61573;BME280;47465;43.094;12.434;2023-10-19T00:50:07;98031.19;;;15.79;100.00
61573;BME280;47465;43.094;12.434;2023-10-19T00:52:40;98026.81;;;15.92;100.00
61573;BME280;47465;43.094;12.434;2023-10-19T00:55:13;97989.63;;;15.86;100.00
61573;BME280;47465;43.094;12.434;2023-10-19T00:57:42;97998.13;;;15.78;100.00
61573;BME280;47465;43.094;12.434;2023-10-19T01:00:14;98008.41;;;15.86;100.00
61573;BME280;47465;43.094;12.434;2023-10-19T01:02:57;98028.63;;;15.92;100.00
61573;BME280;47465;43.094;12.434;2023-10-19T01:05:25;98001.22;;;15.72;100.00
61573;BME280;47465;43.094;12.434;2023-10-19T01:07:57;97963.69;;;15.56;100.00
61573;BME280;47465;43.094;12.434;2023-10-19T01:10:26;97998.63;;;15.85;100.00
61573;BME280;47465;43.094;12.434;2023-10-19T01:12:55;97986.22;;;15.68;100.00
61573;BME280;47465;43.094;12.434;2023-10-19T01:15:24;97953.25;;;15.52;100.00
61573;BME280;47465;43.094;12.434;2023-10-19T01:18:12;97992.44;;;15.69;100.00
61573;BME280;47465;43.094;12.434;2023-10-19T01:20:40;97965.88;;;15.80;100.00
61573;BME280;47465;43.094;12.434;2023-10-19T01:23:41;97979.19;;;15.81;100.00
61573;BME280;47465;43.094;12.434;2023-10-19T01:26:06;97961.78;;;15.74;100.00
61573;BME280;47465;43.094;12.434;2023-10-19T01:28:35;97951.69;;;15.64;100.00
61573;BME280;47465;43.094;12.434;2023-10-19T01:31:48;97967.88;;;15.76;100.00
61573;BME280;47465;43.094;12.434;2023-10-19T01:34:22;97915.00;;;15.64;100.00
61573;BME280;47465;43.094;12.434;2023-10-19T01:36:48;97953.03;;;15.85;100.00
61573;BME280;47465;43.094;12.434;2023-10-19T01:39:16;97901.09;;;15.43;100.00
61573;BME280;47465;43.094;12.434;2023-10-19T01:41:44;97962.63;;;15.75;100.00
61573;BME280;47465;43.094;12.434;2023-10-19T01:44:10;97911.25;;;15.38;100.00
61573;BME280;47465;43.094;12.434;2023-10-19T01:46:41;97938.59;;;15.43;100.00
61573;BME280;47465;43.094;12.434;2023-10-19T01:49:10;97918.66;;;15.33;100.00
61573;BME280;47465;43.094;12.434;2023-10-19T01:51:36;97917.66;;;15.35;100.00
61573;BME280;47465;43.094;12.434;2023-10-19T01:54:04;97914.50;;;15.13;100.00
61573;BME280;47465;43.094;12.434;2023-10-19T01:56:32;97935.94;;;15.13;100.00
61573;BME280;47465;43.094;12.434;2023-10-19T01:59:01;97905.06;;;14.91;100.00
61573;BME280;47465;43.094;12.434;2023-10-19T02:01:27;97907.88;;;15.04;100.00
61573;BME280;47465;43.094;12.434;2023-10-19T02:04:13;97887.22;;;15.06;100.00
61573;BME280;47465;43.094;12.434;2023-10-19T02:06:39;97931.63;;;15.40;100.00
61573;BME280;47465;43.094;12.434;2023-10-19T02:09:07;97872.13;;;15.05;100.00
61573;BME280;47465;43.094;12.434;2023-10-19T02:11:39;97877.88;;;15.13;100.00
61573;BME280;47465;43.094;12.434;2023-10-19T02:14:08;97903.09;;;15.39;100.00
61573;BME280;47465;43.094;12.434;2023-10-19T02:16:42;97872.91;;;15.07;100.00
61573;BME280;47465;43.094;12.434;2023-10-19T02:19:09;97884.31;;;15.25;100.00
61573;BME280;47465;43.094;12.434;2023-10-19T02:21:37;97890.56;;;15.54;100.00
61573;BME280;47465;43.094;12.434;2023-10-19T02:24:06;97883.59;;;15.52;100.00
61573;BME280;47465;43.094;12.434;2023-10-19T02:26:33;97843.28;;;15.25;100.00
61573;BME280;47465;43.094;12.434;2023-10-19T02:28:59;97892.28;;;15.41;100.00
61573;BME280;47465;43.094;12.434;2023-10-19T02:31:26;97872.69;;;15.40;100.00
61573;BME280;47465;43.094;12.434;2023-10-19T02:33:53;97841.84;;;15.19;100.00
61573;BME280;47465;43.094;12.434;2023-10-19T02:36:27;97874.03;;;15.33;100.00
61573;BME280;47465;43.094;12.434;2023-10-19T02:38:57;97838.84;;;15.09;100.00
61573;BME280;47465;43.094;12.434;2023-10-19T02:41:26;97859.84;;;15.46;100.00
61573;BME280;47465;43.094;12.434;2023-10-19T02:43:53;97842.63;;;15.35;100.00
61573;BME280;47465;43.094;12.434;2023-10-19T02:47:00;97845.94;;;15.10;100.00
61573;BME280;47465;43.094;12.434;2023-10-19T02:49:31;97830.78;;;14.95;100.00
61573;BME280;47465;43.094;12.434;2023-10-19T02:51:57;97890.47;;;15.27;100.00
61573;BME280;47465;43.094;12.434;2023-10-19T02:54:29;97855.16;;;14.90;100.00
61573;BME280;47465;43.094;12.434;2023-10-19T02:56:58;97908.38;;;15.11;100.00
61573;BME280;47465;43.094;12.434;2023-10-19T02:59:26;97858.34;;;14.81;100.00
61573;BME280;47465;43.094;12.434;2023-10-19T03:01:55;97888.22;;;14.89;100.00
61573;BME280;47465;43.094;12.434;2023-10-19T03:04:28;97886.50;;;14.88;100.00
61573;BME280;47465;43.094;12.434;2023-10-19T03:06:54;97895.19;;;15.08;100.00
61573;BME280;47465;43.094;12.434;2023-10-19T03:09:22;97837.38;;;14.89;100.00
61573;BME280;47465;43.094;12.434;2023-10-19T03:11:49;97895.44;;;15.48;100.00
61573;BME280;47465;43.094;12.434;2023-10-19T03:14:19;97856.50;;;15.28;100.00
61573;BME280;47465;43.094;12.434;2023-10-19T03:16:45;97860.81;;;15.45;100.00
61573;BME280;47465;43.094;12.434;2023-10-19T03:19:11;97878.91;;;15.55;100.00
61573;BME280;47465;43.094;12.434;2023-10-19T03:21:40;97862.25;;;15.65;100.00
61573;BME280;47465;43.094;12.434;2023-10-19T03:24:08;97911.78;;;16.02;100.00
61573;BME280;47465;43.094;12.434;2023-10-19T03:26:48;97892.84;;;16.05;100.00
61573;BME280;47465;43.094;12.434;2023-10-19T03:29:14;97856.91;;;15.93;100.00
61573;BME280;47465;43.094;12.434;2023-10-19T03:31:41;97855.47;;;16.02;100.00
61573;BME280;47465;43.094;12.434;2023-10-19T03:34:10;97873.06;;;16.20;100.00
61573;BME280;47465;43.094;12.434;2023-10-19T03:36:39;97821.28;;;16.06;100.00
61573;BME280;47465;43.094;12.434;2023-10-19T03:39:05;97803.97;;;15.97;100.00
61573;BME280;47465;43.094;12.434;2023-10-19T03:41:39;97775.34;;;15.69;100.00
61573;BME280;47465;43.094;12.434;2023-10-19T03:44:08;97823.03;;;15.78;100.00
61573;BME280;47465;43.094;12.434;2023-10-19T03:46:39;97829.72;;;15.71;100.00
61573;BME280;47465;43.094;12.434;2023-10-19T03:49:18;97791.94;;;15.47;100.00
61573;BME280;47465;43.094;12.434;2023-10-19T03:51:46;97802.53;;;15.48;100.00
61573;BME280;47465;43.094;12.434;2023-10-19T03:54:24;97809.91;;;15.59;100.00
61573;BME280;47465;43.094;12.434;2023-10-19T03:56:50;97761.69;;;15.30;100.00
61573;BME280;47465;43.094;12.434;2023-10-19T03:59:16;97802.25;;;15.38;100.00
61573;BME280;47465;43.094;12.434;2023-10-19T04:01:43;97777.09;;;15.12;100.00
61573;BME280;47465;43.094;12.434;2023-10-19T04:04:09;97794.03;;;15.27;100.00
61573;BME280;47465;43.094;12.434;2023-10-19T04:06:35;97754.22;;;15.07;100.00
61573;BME280;47465;43.094;12.434;2023-10-19T04:09:04;97797.94;;;15.22;100.00
61573;BME280;47465;43.094;12.434;2023-10-19T04:11:31;97795.34;;;15.20;100.00
61573;BME280;47465;43.094;12.434;2023-10-19T04:13:58;97806.06;;;15.34;100.00
61573;BME280;47465;43.094;12.434;2023-10-19T04:16:29;97766.06;;;14.88;100.00
61573;BME280;47465;43.094;12.434;2023-10-19T04:18:55;97815.34;;;15.29;100.00
61573;BME280;47465;43.094;12.434;2023-10-19T04:21:21;97773.69;;;14.80;100.00
61573;BME280;47465;43.094;12.434;2023-10-19T04:23:46;97769.91;;;14.98;100.00
61573;BME280;47465;43.094;12.434;2023-10-19T04:26:14;97804.34;;;15.19;100.00
61573;BME280;47465;43.094;12.434;2023-10-19T04:28:44;97826.16;;;15.27;100.00
61573;BME280;47465;43.094;12.434;2023-10-19T04:31:15;97835.44;;;15.50;100.00
61573;BME280;47465;43.094;12.434;2023-10-19T04:33:42;97761.09;;;14.96;100.00
61573;BME280;47465;43.094;12.434;2023-10-19T04:36:12;97821.19;;;15.50;100.00
61573;BME280;47465;43.094;12.434;2023-10-19T04:38:38;97766.28;;;15.14;100.00
61573;BME280;47465;43.094;12.434;2023-10-19T04:41:06;97812.22;;;15.51;100.00
61573;BME280;47465;43.094;12.434;2023-10-19T04:43:35;97784.94;;;15.44;100.00
61573;BME280;47465;43.094;12.434;2023-10-19T04:46:05;97819.88;;;15.71;100.00
61573;BME280;47465;43.094;12.434;2023-10-19T04:48:34;97792.13;;;15.58;100.00
61573;BME280;47465;43.094;12.434;2023-10-19T04:51:01;97817.00;;;15.89;100.00
61573;BME280;47465;43.094;12.434;2023-10-19T04:53:30;97769.22;;;15.67;100.00
61573;BME280;47465;43.094;12.434;2023-10-19T04:55:56;97780.25;;;15.62;100.00
61573;BME280;47465;43.094;12.434;2023-10-19T04:58:22;97778.75;;;15.72;100.00
61573;BME280;47465;43.094;12.434;2023-10-19T05:00:49;97811.63;;;15.89;100.00
61573;BME280;47465;43.094;12.434;2023-10-19T05:03:15;97795.59;;;15.74;100.00
61573;BME280;47465;43.094;12.434;2023-10-19T05:05:44;97781.31;;;15.74;100.00
61573;BME280;47465;43.094;12.434;2023-10-19T05:08:10;97809.25;;;15.98;100.00
61573;BME280;47465;43.094;12.434;2023-10-19T05:10:36;97743.41;;;15.51;100.00
61573;BME280;47465;43.094;12.434;2023-10-19T05:13:03;97790.19;;;15.89;100.00
61573;BME280;47465;43.094;12.434;2023-10-19T05:15:29;97805.00;;;15.66;100.00
61573;BME280;47465;43.094;12.434;2023-10-19T05:17:56;97739.19;;;15.33;100.00
61573;BME280;47465;43.094;12.434;2023-10-19T05:20:22;97766.06;;;15.46;100.00
61573;BME280;47465;43.094;12.434;2023-10-19T05:22:49;97783.22;;;15.57;100.00
61573;BME280;47465;43.094;12.434;2023-10-19T05:25:15;97787.53;;;15.60;100.00
61573;BME280;47465;43.094;12.434;2023-10-19T05:27:41;97775.56;;;15.51;100.00
61573;BME280;47465;43.094;12.434;2023-10-19T05:30:08;97767.22;;;15.56;100.00
61573;BME280;47465;43.094;12.434;2023-10-19T05:32:36;97753.28;;;15.51;100.00
61573;BME280;47465;43.094;12.434;2023-10-19T05:35:04;97784.63;;;15.63;100.00
61573;BME280;47465;43.094;12.434;2023-10-19T05:37:30;97788.00;;;15.67;100.00
61573;BME280;47465;43.094;12.434;2023-10-19T05:39:56;97765.53;;;15.40;100.00
61573;BME280;47465;43.094;12.434;2023-10-19T05:42:22;97755.75;;;15.39;100.00
61573;BME280;47465;43.094;12.434;2023-10-19T05:44:49;97778.91;;;15.55;100.00
61573;BME280;47465;43.094;12.434;2023-10-19T05:47:14;97796.44;;;15.75;100.00
61573;BME280;47465;43.094;12.434;2023-10-19T05:49:40;97814.69;;;15.82;100.00
61573;BME280;47465;43.094;12.434;2023-10-19T05:52:08;97771.25;;;15.49;100.00
61573;BME280;47465;43.094;12.434;2023-10-19T05:54:33;97793.94;;;15.57;100.00
61573;BME280;47465;43.094;12.434;2023-10-19T05:56:59;97804.38;;;15.62;100.00
61573;BME280;47465;43.094;12.434;2023-10-19T05:59:25;97808.66;;;15.65;100.00
61573;BME280;47465;43.094;12.434;2023-10-19T06:01:52;97745.81;;;15.27;100.00
61573;BME280;47465;43.094;12.434;2023-10-19T06:04:18;97809.16;;;15.71;100.00
61573;BME280;47465;43.094;12.434;2023-10-19T06:06:44;97799.19;;;15.59;100.00
61573;BME280;47465;43.094;12.434;2023-10-19T06:09:11;97809.22;;;15.70;100.00
61573;BME280;47465;43.094;12.434;2023-10-19T06:11:37;97753.34;;;15.35;100.00
61573;BME280;47465;43.094;12.434;2023-10-19T06:14:03;97789.81;;;15.52;100.00
61573;BME280;47465;43.094;12.434;2023-10-19T06:16:32;97779.94;;;15.52;100.00
61573;BME280;47465;43.094;12.434;2023-10-19T06:18:59;97789.25;;;15.75;100.00
61573;BME280;47465;43.094;12.434;2023-10-19T06:21:25;97775.09;;;15.73;100.00
61573;BME280;47465;43.094;12.434;2023-10-19T06:23:51;97832.38;;;16.14;100.00
61573;BME280;47465;43.094;12.434;2023-10-19T06:26:19;97748.22;;;16.02;100.00
61573;BME280;47465;43.094;12.434;2023-10-19T06:28:45;97797.38;;;16.57;100.00
61573;BME280;47465;43.094;12.434;2023-10-19T06:31:11;97817.38;;;16.78;100.00
61573;BME280;47465;43.094;12.434;2023-10-19T06:33:37;97748.00;;;16.32;100.00
61573;BME280;47465;43.094;12.434;2023-10-19T06:36:07;97772.84;;;16.49;100.00
61573;BME280;47465;43.094;12.434;2023-10-19T06:38:33;97826.22;;;16.80;100.00
61573;BME280;47465;43.094;12.434;2023-10-19T06:40:59;97754.69;;;16.39;100.00
61573;BME280;47465;43.094;12.434;2023-10-19T06:43:30;97800.31;;;16.79;100.00
61573;BME280;47465;43.094;12.434;2023-10-19T06:45:56;97763.94;;;16.88;100.00
61573;BME280;47465;43.094;12.434;2023-10-19T06:48:22;97800.94;;;17.23;100.00
61573;BME280;47465;43.094;12.434;2023-10-19T06:50:48;97781.16;;;17.37;100.00
61573;BME280;47465;43.094;12.434;2023-10-19T06:53:14;97805.53;;;17.72;100.00
61573;BME280;47465;43.094;12.434;2023-10-19T06:55:40;97776.41;;;17.66;100.00
61573;BME280;47465;43.094;12.434;2023-10-19T06:58:06;97788.22;;;17.76;100.00
61573;BME280;47465;43.094;12.434;2023-10-19T07:00:34;97806.34;;;18.11;100.00
61573;BME280;47465;43.094;12.434;2023-10-19T07:03:02;97799.50;;;18.31;100.00
61573;BME280;47465;43.094;12.434;2023-10-19T07:05:29;97768.91;;;18.32;100.00
61573;BME280;47465;43.094;12.434;2023-10-19T07:07:56;97830.88;;;18.67;100.00
61573;BME280;47465;43.094;12.434;2023-10-19T07:10:23;97820.53;;;18.50;100.00
61573;BME280;47465;43.094;12.434;2023-10-19T07:12:51;97760.25;;;18.40;100.00
61573;BME280;47465;43.094;12.434;2023-10-19T07:15:19;97816.78;;;18.88;100.00
61573;BME280;47465;43.094;12.434;2023-10-19T07:17:47;97768.78;;;18.82;100.00
61573;BME280;47465;43.094;12.434;2023-10-19T07:20:15;97811.22;;;19.02;100.00
61573;BME280;47465;43.094;12.434;2023-10-19T07:23:17;97778.16;;;19.12;100.00
61573;BME280;47465;43.094;12.434;2023-10-19T07:25:45;97772.88;;;19.10;100.00
61573;BME280;47465;43.094;12.434;2023-10-19T07:28:12;97832.84;;;19.36;100.00
61573;BME280;47465;43.094;12.434;2023-10-19T07:30:39;97776.03;;;18.93;100.00
61573;BME280;47465;43.094;12.434;2023-10-19T07:33:06;97772.59;;;18.91;100.00
61573;BME280;47465;43.094;12.434;2023-10-19T07:35:35;97769.69;;;18.94;100.00
61573;BME280;47465;43.094;12.434;2023-10-19T07:38:04;97790.16;;;19.07;100.00
61573;BME280;47465;43.094;12.434;2023-10-19T07:40:35;97771.09;;;19.22;100.00
61573;BME280;47465;43.094;12.434;2023-10-19T07:43:03;97750.28;;;19.46;100.00
61573;BME280;47465;43.094;12.434;2023-10-19T07:45:29;97744.88;;;19.58;100.00
61573;BME280;47465;43.094;12.434;2023-10-19T07:47:57;97742.91;;;19.60;100.00
61573;BME280;47465;43.094;12.434;2023-10-19T07:50:23;97733.22;;;19.68;100.00
61573;BME280;47465;43.094;12.434;2023-10-19T07:52:50;97733.84;;;19.49;100.00
61573;BME280;47465;43.094;12.434;2023-10-19T07:55:17;97739.63;;;19.79;100.00
61573;BME280;47465;43.094;12.434;2023-10-19T07:57:49;97749.53;;;20.01;100.00
61573;BME280;47465;43.094;12.434;2023-10-19T08:00:16;97758.63;;;20.00;100.00
61573;BME280;47465;43.094;12.434;2023-10-19T08:02:43;97747.66;;;20.13;100.00
61573;BME280;47465;43.094;12.434;2023-10-19T08:05:12;97774.16;;;20.51;100.00
61573;BME280;47465;43.094;12.434;2023-10-19T08:07:39;97744.28;;;20.31;100.00
61573;BME280;47465;43.094;12.434;2023-10-19T08:10:09;97738.13;;;20.41;100.00
61573;BME280;47465;43.094;12.434;2023-10-19T08:12:36;97745.34;;;20.51;100.00
61573;BME280;47465;43.094;12.434;2023-10-19T08:15:04;97788.91;;;20.47;100.00
61573;BME280;47465;43.094;12.434;2023-10-19T08:17:32;97754.19;;;20.42;100.00
61573;BME280;47465;43.094;12.434;2023-10-19T08:19:59;97749.63;;;20.54;100.00
61573;BME280;47465;43.094;12.434;2023-10-19T08:22:28;97771.25;;;20.86;100.00
61573;BME280;47465;43.094;12.434;2023-10-19T08:24:56;97750.88;;;20.82;100.00
61573;BME280;47465;43.094;12.434;2023-10-19T08:27:22;97794.13;;;21.24;100.00
61573;BME280;47465;43.094;12.434;2023-10-19T08:29:49;97774.09;;;21.06;100.00
61573;BME280;47465;43.094;12.434;2023-10-19T08:32:17;97769.66;;;21.26;100.00
61573;BME280;47465;43.094;12.434;2023-10-19T08:34:43;97752.19;;;21.09;100.00
61573;BME280;47465;43.094;12.434;2023-10-19T08:37:09;97746.97;;;20.75;100.00
61573;BME280;47465;43.094;12.434;2023-10-19T08:39:36;97746.25;;;20.94;100.00
61573;BME280;47465;43.094;12.434;2023-10-19T08:42:03;97770.06;;;21.21;100.00
61573;BME280;47465;43.094;12.434;2023-10-19T08:44:30;97738.59;;;21.20;100.00
61573;BME280;47465;43.094;12.434;2023-10-19T08:46:56;97745.94;;;21.08;100.00
61573;BME280;47465;43.094;12.434;2023-10-19T08:49:25;97759.69;;;21.26;100.00
61573;BME280;47465;43.094;12.434;2023-10-19T08:51:52;97797.03;;;21.53;100.00
61573;BME280;47465;43.094;12.434;2023-10-19T08:54:20;97749.91;;;21.35;100.00
61573;BME280;47465;43.094;12.434;2023-10-19T08:56:46;97784.16;;;21.67;100.00
61573;BME280;47465;43.094;12.434;2023-10-19T08:59:13;97748.38;;;22.04;100.00
61573;BME280;47465;43.094;12.434;2023-10-19T09:01:40;97754.63;;;21.64;100.00
61573;BME280;47465;43.094;12.434;2023-10-19T09:04:10;97736.31;;;21.77;100.00
61573;BME280;47465;43.094;12.434;2023-10-19T09:06:38;97736.88;;;21.71;100.00
61573;BME280;47465;43.094;12.434;2023-10-19T09:09:08;97729.06;;;21.78;100.00
61573;BME280;47465;43.094;12.434;2023-10-19T09:11:35;97768.28;;;22.72;100.00
61573;BME280;47465;43.094;12.434;2023-10-19T09:14:01;97705.69;;;22.66;100.00
61573;BME280;47465;43.094;12.434;2023-10-19T09:16:29;97726.34;;;22.38;100.00
61573;BME280;47465;43.094;12.434;2023-10-19T09:18:57;97718.72;;;22.12;100.00
61573;BME280;47465;43.094;12.434;2023-10-19T09:21:27;97744.06;;;22.61;100.00
61573;BME280;47465;43.094;12.434;2023-10-19T09:23:56;97766.44;;;22.83;100.00
61573;BME280;47465;43.094;12.434;2023-10-19T09:26:24;97734.19;;;22.99;100.00
61573;BME280;47465;43.094;12.434;2023-10-19T09:28:52;97706.09;;;23.00;100.00
61573;BME280;47465;43.094;12.434;2023-10-19T09:31:23;97706.81;;;23.12;100.00
61573;BME280;47465;43.094;12.434;2023-10-19T09:33:50;97730.72;;;23.73;100.00
61573;BME280;47465;43.094;12.434;2023-10-19T09:39:14;97703.34;;;23.94;100.00
61573;BME280;47465;43.094;12.434;2023-10-19T09:41:42;97734.59;;;24.26;100.00
61573;BME280;47465;43.094;12.434;2023-10-19T09:44:09;97734.78;;;24.43;100.00
61573;BME280;47465;43.094;12.434;2023-10-19T09:46:39;97673.34;;;24.32;100.00
61573;BME280;47465;43.094;12.434;2023-10-19T09:49:05;97686.63;;;24.17;100.00
61573;BME280;47465;43.094;12.434;2023-10-19T09:51:34;97689.56;;;24.24;100.00
61573;BME280;47465;43.094;12.434;2023-10-19T09:54:11;97679.44;;;23.98;100.00
61573;BME280;47465;43.094;12.434;2023-10-19T09:56:46;97719.22;;;24.17;100.00
61573;BME280;47465;43.094;12.434;2023-10-19T09:59:22;97681.13;;;23.81;100.00
61573;BME280;47465;43.094;12.434;2023-10-19T10:02:10;97670.25;;;23.81;100.00
61573;BME280;47465;43.094;12.434;2023-10-19T10:04:38;97704.06;;;23.96;100.00
61573;BME280;47465;43.094;12.434;2023-10-19T10:07:06;97682.19;;;23.61;100.00
61573;BME280;47465;43.094;12.434;2023-10-19T10:09:35;97638.78;;;23.61;100.00
61573;BME280;47465;43.094;12.434;2023-10-19T10:12:20;97683.09;;;23.89;100.00
61573;BME280;47465;43.094;12.434;2023-10-19T10:14:58;97642.34;;;23.89;100.00
61573;BME280;47465;43.094;12.434;2023-10-19T10:17:24;97661.56;;;24.05;100.00
61573;BME280;47465;43.094;12.434;2023-10-19T10:19:54;97627.53;;;23.83;100.00
61573;BME280;47465;43.094;12.434;2023-10-19T10:22:22;97630.88;;;23.67;100.00
61573;BME280;47465;43.094;12.434;2023-10-19T10:24:53;97636.06;;;23.61;100.00
61573;BME280;47465;43.094;12.434;2023-10-19T10:27:22;97624.97;;;23.82;100.00
61573;BME280;47465;43.094;12.434;2023-10-19T10:29:59;97611.00;;;23.76;100.00
61573;BME280;47465;43.094;12.434;2023-10-19T10:32:44;97636.78;;;24.08;100.00
61573;BME280;47465;43.094;12.434;2023-10-19T10:35:10;97650.94;;;24.12;100.00
61573;BME280;47465;43.094;12.434;2023-10-19T10:37:57;97628.41;;;24.02;100.00
61573;BME280;47465;43.094;12.434;2023-10-19T10:40:23;97628.09;;;24.05;100.00
61573;BME280;47465;43.094;12.434;2023-10-19T10:43:07;97602.72;;;23.96;100.00
61573;BME280;47465;43.094;12.434;2023-10-19T10:45:37;97649.91;;;24.31;100.00
61573;BME280;47465;43.094;12.434;2023-10-19T10:48:04;97597.03;;;23.89;100.00
61573;BME280;47465;43.094;12.434;2023-10-19T10:50:32;97642.44;;;24.15;100.00
61573;BME280;47465;43.094;12.434;2023-10-19T10:52:59;97599.94;;;23.88;100.00
61573;BME280;47465;43.094;12.434;2023-10-19T10:55:25;97582.09;;;24.03;100.00
61573;BME280;47465;43.094;12.434;2023-10-19T10:57:51;97574.66;;;24.05;100.00
61573;BME280;47465;43.094;12.434;2023-10-19T11:00:20;97570.69;;;23.82;100.00
61573;BME280;47465;43.094;12.434;2023-10-19T11:02:47;97571.28;;;24.11;100.00
61573;BME280;47465;43.094;12.434;2023-10-19T11:05:25;97608.00;;;24.33;100.00
61573;BME280;47465;43.094;12.434;2023-10-19T11:08:05;97608.69;;;24.53;100.00
61573;BME280;47465;43.094;12.434;2023-10-19T11:10:52;97561.25;;;24.30;100.00
61573;BME280;47465;43.094;12.434;2023-10-19T11:13:42;97555.78;;;24.48;100.00
61573;BME280;47465;43.094;12.434;2023-10-19T11:16:10;97554.63;;;24.68;100.00
61573;BME280;47465;43.094;12.434;2023-10-19T11:18:49;97610.16;;;25.18;100.00
61573;BME280;47465;43.094;12.434;2023-10-19T11:21:16;97573.75;;;25.19;100.00
61573;BME280;47465;43.094;12.434;2023-10-19T11:23:47;97528.72;;;24.56;100.00
61573;BME280;47465;43.094;12.434;2023-10-19T11:26:19;97539.44;;;24.66;100.00
61573;BME280;47465;43.094;12.434;2023-10-19T11:28:46;97529.75;;;24.63;100.00
61573;BME280;47465;43.094;12.434;2023-10-19T11:31:19;97552.16;;;24.83;100.00
61573;BME280;47465;43.094;12.434;2023-10-19T11:33:46;97522.19;;;24.75;100.00
61573;BME280;47465;43.094;12.434;2023-10-19T11:36:20;97569.28;;;25.10;100.00
61573;BME280;47465;43.094;12.434;2023-10-19T11:38:48;97502.00;;;24.51;100.00
61573;BME280;47465;43.094;12.434;2023-10-19T11:41:16;97564.41;;;24.87;100.00
61573;BME280;47465;43.094;12.434;2023-10-19T11:43:44;97523.03;;;24.75;100.00
61573;BME280;47465;43.094;12.434;2023-10-19T11:50:02;97523.81;;;25.28;100.00
61573;BME280;47465;43.094;12.434;2023-10-19T11:52:28;97557.88;;;25.40;100.00
61573;BME280;47465;43.094;12.434;2023-10-19T11:54:56;97557.75;;;25.58;100.00
61573;BME280;47465;43.094;12.434;2023-10-19T11:57:22;97546.22;;;25.65;100.00
61573;BME280;47465;43.094;12.434;2023-10-19T11:59:47;97519.78;;;25.40;100.00
61573;BME280;47465;43.094;12.434;2023-10-19T12:02:18;97515.16;;;25.33;100.00
61573;BME280;47465;43.094;12.434;2023-10-19T12:04:44;97529.38;;;25.18;100.00
61573;BME280;47465;43.094;12.434;2023-10-19T12:07:14;97501.53;;;25.33;100.00
61573;BME280;47465;43.094;12.434;2023-10-19T12:09:40;97536.50;;;25.62;100.00
61573;BME280;47465;43.094;12.434;2023-10-19T12:12:08;97505.16;;;25.50;100.00
61573;BME280;47465;43.094;12.434;2023-10-19T12:14:34;97552.19;;;25.68;100.00
61573;BME280;47465;43.094;12.434;2023-10-19T12:17:01;97518.38;;;25.28;100.00
61573;BME280;47465;43.094;12.434;2023-10-19T12:19:29;97561.72;;;25.72;100.00
61573;BME280;47465;43.094;12.434;2023-10-19T12:21:56;97514.88;;;25.60;100.00
61573;BME280;47465;43.094;12.434;2023-10-19T12:24:25;97548.78;;;25.74;100.00
61573;BME280;47465;43.094;12.434;2023-10-19T12:26:54;97547.53;;;25.44;100.00
61573;BME280;47465;43.094;12.434;2023-10-19T12:29:20;97501.06;;;24.95;100.00
61573;BME280;47465;43.094;12.434;2023-10-19T12:31:49;97515.19;;;24.98;100.00
61573;BME280;47465;43.094;12.434;2023-10-19T12:34:15;97544.19;;;25.24;100.00
61573;BME280;47465;43.094;12.434;2023-10-19T12:36:42;97522.41;;;25.16;100.00
61573;BME280;47465;43.094;12.434;2023-10-19T12:39:12;97509.09;;;25.13;100.00
61573;BME280;47465;43.094;12.434;2023-10-19T12:41:59;97556.88;;;25.50;100.00
61573;BME280;47465;43.094;12.434;2023-10-19T12:44:27;97511.44;;;25.34;100.00
61573;BME280;47465;43.094;12.434;2023-10-19T12:46:55;97534.97;;;25.59;100.00
61573;BME280;47465;43.094;12.434;2023-10-19T12:49:23;97501.25;;;25.44;100.00
61573;BME280;47465;43.094;12.434;2023-10-19T12:51:51;97506.16;;;25.40;100.00
61573;BME280;47465;43.094;12.434;2023-10-19T12:54:18;97504.97;;;25.43;100.00
61573;BME280;47465;43.094;12.434;2023-10-19T12:56:45;97504.25;;;25.25;100.00
61573;BME280;47465;43.094;12.434;2023-10-19T12:59:16;97503.81;;;25.03;100.00